New Nada — 3ELP9 — position and weather

sailwx.info

Track history (hours):
 
Tides and Currents Weather Stations Pressure Air Temp Water Temp Dewpoint Dewpoint Depression Visibility Wind Speed Wind Dir Waves Ship Positions

New Nada

Last reported at 2015-Jan-28 23:32 UTC. Time now 2015-Jan-29 00:22 UTC.
Position N 31°34' E 121°28'.

Length 180 m; beam 32.2 m.

Type: Cargo ship. MMSI: 356005000.

Date/timePositionNaut miles runAvg speedWind from/ knotsBaromVisibWave heightAir tempDewpointWater temp
2015-Jan-28 23:32N 31°34' E 121°28'0 0.0
2015-Jan-28 22:32N 31°34' E 121°28'0 0.0
2015-Jan-28 21:32N 31°34' E 121°28'0 0.1
2015-Jan-28 20:32N 31°34' E 121°28'0 0.1
2015-Jan-28 19:32N 31°34' E 121°29'0 0.0
2015-Jan-28 18:29N 31°34' E 121°29'0 0.1
2015-Jan-28 17:32N 31°34' E 121°29'0 0.1
2015-Jan-28 16:32N 31°34' E 121°28'0 0.0
2015-Jan-28 15:29N 31°34' E 121°28'0 0.0
2015-Jan-28 14:32N 31°34' E 121°28'0 0.1
2015-Jan-28 13:32N 31°34' E 121°28'0 0.1
2015-Jan-28 12:32N 31°34' E 121°28'0 0.0
2015-Jan-28 11:32N 31°34' E 121°28'0 0.0
2015-Jan-28 10:32N 31°34' E 121°28'0 0.0
2015-Jan-28 09:32N 31°34' E 121°28'0 0.1
2015-Jan-28 08:29N 31°34' E 121°28'0 0.1
2015-Jan-28 07:32N 31°34' E 121°28'0 0.1
2015-Jan-28 06:32N 31°34' E 121°28'0 0.0
2015-Jan-28 05:26N 31°34' E 121°28'0 0.0
2015-Jan-28 04:26N 31°34' E 121°28'0 0.0
2015-Jan-28 03:32N 31°34' E 121°28'0 0.0
2015-Jan-28 02:32N 31°34' E 121°28'0 0.1
2015-Jan-28 01:32N 31°34' E 121°28'0 0.0
2015-Jan-28 00:32N 31°34' E 121°28'0 0.1
2015-Jan-27 23:32N 31°34' E 121°28'0 0.0
2015-Jan-27 22:32N 31°34' E 121°28'0 0.0
2015-Jan-27 21:32N 31°34' E 121°28'0 0.0
2015-Jan-27 20:32N 31°34' E 121°28'0 0.1
2015-Jan-27 19:32N 31°34' E 121°28'0 0.1
2015-Jan-27 18:32N 31°34' E 121°28'0 0.1
2015-Jan-27 17:32N 31°34' E 121°28'0 0.0
2015-Jan-27 16:32N 31°34' E 121°28'0 0.0
2015-Jan-27 15:32N 31°34' E 121°28'0 0.0
2015-Jan-27 14:32N 31°34' E 121°28'0 0.0
2015-Jan-27 13:32N 31°34' E 121°28'0 0.1
2015-Jan-27 12:32N 31°34' E 121°28'0 0.0
2015-Jan-27 11:32N 31°34' E 121°28'0 0.0
2015-Jan-27 10:32N 31°34' E 121°28'0 0.1
2015-Jan-27 09:32N 31°34' E 121°28'0 0.0
2015-Jan-27 08:29N 31°34' E 121°28'0 0.1
2015-Jan-27 07:32N 31°34' E 121°28'0 0.1
2015-Jan-27 06:32N 31°34' E 121°28'0 0.0
2015-Jan-27 05:32N 31°34' E 121°28'0 0.1
2015-Jan-27 04:32N 31°34' E 121°29'0 0.1
2015-Jan-27 03:33N 31°34' E 121°29'2 1.7
2015-Jan-27 02:33N 31°34' E 121°30'5 5.0
2015-Jan-27 01:33N 31°30' E 121°34'6 5.7
2015-Jan-27 00:34N 31°28' E 121°28'8 8.0
2015-Jan-26 23:34N 31°23' E 121°35'8 7.5
2015-Jan-26 22:34N 31°19' E 121°42'1312.5
2015-Jan-26 21:33N 31°10' E 121°52'1212.3
2015-Jan-26 20:34N 31°04' E 122°05'10 9.5
2015-Jan-26 19:33N 31°03' E 122°16'9 8.7
2015-Jan-26 18:33N 31°01' E 122°26'21 1.4
2015-Jan-26 03:25N 31°06' E 122°50'16 8.4
2015-Jan-26 01:33N 31°07' E 122°32'10 9.5
2015-Jan-26 00:32N 31°17' E 122°33'6 5.8
2015-Jan-25 23:26N 31°20' E 122°39'  
Track history (hours):
 
Tides and Currents Weather Stations Pressure Air Temp Water Temp Dewpoint Dewpoint Depression Visibility Wind Speed Wind Dir Waves Ship Positions

New Nada

Last reported at 2015-Jan-28 23:32 UTC. Time now 2015-Jan-29 00:22 UTC.
Position N 31°34' E 121°28'.

Length 180 m; beam 32.2 m.

Type: Cargo ship. MMSI: 356005000.

Date/timePositionNaut miles runAvg speedWind from/ knotsBaromVisibWave heightAir tempDewpointWater temp
2015-Jan-28 23:32N 31°34' E 121°28'0 0.0
2015-Jan-28 22:32N 31°34' E 121°28'0 0.0
2015-Jan-28 21:32N 31°34' E 121°28'0 0.1
2015-Jan-28 20:32N 31°34' E 121°28'0 0.1
2015-Jan-28 19:32N 31°34' E 121°29'0 0.0
2015-Jan-28 18:29N 31°34' E 121°29'0 0.1
2015-Jan-28 17:32N 31°34' E 121°29'0 0.1
2015-Jan-28 16:32N 31°34' E 121°28'0 0.0
2015-Jan-28 15:29N 31°34' E 121°28'0 0.0
2015-Jan-28 14:32N 31°34' E 121°28'0 0.1
2015-Jan-28 13:32N 31°34' E 121°28'0 0.1
2015-Jan-28 12:32N 31°34' E 121°28'0 0.0
2015-Jan-28 11:32N 31°34' E 121°28'0 0.0
2015-Jan-28 10:32N 31°34' E 121°28'0 0.0
2015-Jan-28 09:32N 31°34' E 121°28'0 0.1
2015-Jan-28 08:29N 31°34' E 121°28'0 0.1
2015-Jan-28 07:32N 31°34' E 121°28'0 0.1
2015-Jan-28 06:32N 31°34' E 121°28'0 0.0
2015-Jan-28 05:26N 31°34' E 121°28'0 0.0
2015-Jan-28 04:26N 31°34' E 121°28'0 0.0
2015-Jan-28 03:32N 31°34' E 121°28'0 0.0
2015-Jan-28 02:32N 31°34' E 121°28'0 0.1
2015-Jan-28 01:32N 31°34' E 121°28'0 0.0
2015-Jan-28 00:32N 31°34' E 121°28'0 0.1
2015-Jan-27 23:32N 31°34' E 121°28'0 0.0
2015-Jan-27 22:32N 31°34' E 121°28'0 0.0
2015-Jan-27 21:32N 31°34' E 121°28'0 0.0
2015-Jan-27 20:32N 31°34' E 121°28'0 0.1
2015-Jan-27 19:32N 31°34' E 121°28'0 0.1
2015-Jan-27 18:32N 31°34' E 121°28'0 0.1
2015-Jan-27 17:32N 31°34' E 121°28'0 0.0
2015-Jan-27 16:32N 31°34' E 121°28'0 0.0
2015-Jan-27 15:32N 31°34' E 121°28'0 0.0
2015-Jan-27 14:32N 31°34' E 121°28'0 0.0
2015-Jan-27 13:32N 31°34' E 121°28'0 0.1
2015-Jan-27 12:32N 31°34' E 121°28'0 0.0
2015-Jan-27 11:32N 31°34' E 121°28'0 0.0
2015-Jan-27 10:32N 31°34' E 121°28'0 0.1
2015-Jan-27 09:32N 31°34' E 121°28'0 0.0
2015-Jan-27 08:29N 31°34' E 121°28'0 0.1
2015-Jan-27 07:32N 31°34' E 121°28'0 0.1
2015-Jan-27 06:32N 31°34' E 121°28'0 0.0
2015-Jan-27 05:32N 31°34' E 121°28'0 0.1
2015-Jan-27 04:32N 31°34' E 121°29'0 0.1
2015-Jan-27 03:33N 31°34' E 121°29'2 1.7
2015-Jan-27 02:33N 31°34' E 121°30'5 5.0
2015-Jan-27 01:33N 31°30' E 121°34'6 5.7
2015-Jan-27 00:34N 31°28' E 121°28'8 8.0
2015-Jan-26 23:34N 31°23' E 121°35'8 7.5
2015-Jan-26 22:34N 31°19' E 121°42'1312.5
2015-Jan-26 21:33N 31°10' E 121°52'1212.3
2015-Jan-26 20:34N 31°04' E 122°05'10 9.5
2015-Jan-26 19:33N 31°03' E 122°16'9 8.7
2015-Jan-26 18:33N 31°01' E 122°26'21 1.4
2015-Jan-26 03:25N 31°06' E 122°50'16 8.4
2015-Jan-26 01:33N 31°07' E 122°32'10 9.5
2015-Jan-26 00:32N 31°17' E 122°33'6 5.8
2015-Jan-25 23:26N 31°20' E 122°39'  

Dump ship's entire track history